»·PEaware :: N218DF KRIR-KSBA

N218DF :: KRIR-KSBA

FLIGHT INFORMATION

Flight Status: Arrived
Operator: Privately registered:
United States
More flights under this callsign
Pilot: Larry S. (744)
Aircraft: PIPER PA-31/31P NAVAJO CHIEFTAIN
(PA31)
More flights by this aircraft type
Origin: KRIR Flabob
United States
Destination: KSBA Santa Barbara Mun
United States
More flights between these airports :: More routes between these airports
Route: PDZ V186 DEANO V27 KWANG
File this flight plan on PilotEdge
Remarks: TEC Route ONTP16 - Plan to use ODP RW24 at KRIR
Altitude:
(Current/Filed)
6,000ft
Speed:
(Current/Filed)
180kts
Departed: 07-Jun-23 09:27 AM
Arrived: 07-Jun-23 10:14 AM
Distance/Time
Traveled:
124nm/0:47
Distance/Time
To Go:
Arrived

Flight Plot

Page will automatically refresh every two minutes.


Map Options




Map Legend


Flown Route
Filed Route
Departure Airport
Arrival Airport
Navaid (VOR, NDB)
Fix

Horizontal Profiles

Position Reports

Time Latitude Longitude Heading Altitude Ground
Speed
07-Jun-23 09:12 33.989861 -117.411475 42 755ft 0kts
07-Jun-23 09:13 33.989861 -117.411475 43 755ft 0kts
07-Jun-23 09:14 33.989885 -117.411448 43 755ft 0kts
07-Jun-23 09:15 33.989885 -117.411448 43 755ft 0kts
07-Jun-23 09:16 33.989885 -117.411448 43 755ft 0kts
07-Jun-23 09:17 33.989885 -117.411448 43 755ft 0kts
07-Jun-23 09:18 33.989885 -117.411448 43 755ft 0kts
07-Jun-23 09:19 33.989885 -117.411448 43 755ft 0kts
07-Jun-23 09:20 33.990039 -117.411223 65 756ft 0kts
07-Jun-23 09:21 33.989480 -117.410216 161 758ft 10kts
07-Jun-23 09:22 33.989813 -117.407437 76 762ft 18kts
07-Jun-23 09:23 33.990146 -117.405009 197 765ft 0kts
07-Jun-23 09:24 33.990146 -117.405009 197 765ft 0kts
07-Jun-23 09:25 33.990032 -117.405039 192 765ft 7kts
07-Jun-23 09:26 33.985853 -117.423822 257 1259ft 117kts
07-Jun-23 09:27 33.974476 -117.459685 222 2901ft 120kts
07-Jun-23 09:28 33.948984 -117.486999 218 4350ft 129kts
07-Jun-23 09:29 33.925674 -117.518594 228 5789ft 134kts
07-Jun-23 09:30 33.929366 -117.565084 293 6090ft 168kts
07-Jun-23 09:31 33.948701 -117.618334 294 6059ft 176kts
07-Jun-23 09:32 33.968501 -117.672569 293 6062ft 177kts
07-Jun-23 09:33 33.988921 -117.726742 294 6068ft 177kts
07-Jun-23 09:34 34.007862 -117.781659 283 6070ft 176kts
07-Jun-23 09:35 34.023146 -117.837925 289 6075ft 177kts
07-Jun-23 09:36 34.040755 -117.893723 290 6057ft 177kts
07-Jun-23 09:37 34.058429 -117.948921 291 6066ft 176kts
07-Jun-23 09:38 34.075715 -118.004389 291 6062ft 175kts
07-Jun-23 09:39 34.092541 -118.059657 290 6062ft 175kts
07-Jun-23 09:40 34.103359 -118.116734 276 6061ft 175kts
07-Jun-23 09:41 34.112190 -118.174373 282 6073ft 174kts
07-Jun-23 09:42 34.121405 -118.232305 282 6062ft 176kts
07-Jun-23 09:43 34.130967 -118.290086 282 6059ft 176kts
07-Jun-23 09:44 34.140144 -118.348092 281 6067ft 175kts
07-Jun-23 09:45 34.149122 -118.405964 281 6065ft 175kts
07-Jun-23 09:46 34.158206 -118.464042 281 6065ft 176kts
07-Jun-23 09:47 34.167321 -118.522079 280 6061ft 175kts
07-Jun-23 09:48 34.176220 -118.579874 280 6055ft 174kts
07-Jun-23 09:49 34.184099 -118.637734 279 6059ft 174kts
07-Jun-23 09:50 34.192638 -118.695627 280 6054ft 174kts
07-Jun-23 09:51 34.201194 -118.753346 280 6058ft 175kts
07-Jun-23 09:52 34.209783 -118.811601 280 6044ft 175kts
07-Jun-23 09:53 34.218060 -118.869393 280 6044ft 174kts
07-Jun-23 09:54 34.226274 -118.927262 280 6039ft 175kts
07-Jun-23 09:55 34.234625 -118.985440 281 6035ft 175kts
07-Jun-23 09:56 34.242512 -119.043123 279 6037ft 174kts
07-Jun-23 09:57 34.251281 -119.100710 281 6033ft 174kts
07-Jun-23 09:58 34.260105 -119.158483 281 6034ft 175kts
07-Jun-23 09:59 34.268933 -119.216334 281 6031ft 175kts
07-Jun-23 10:00 34.276988 -119.274598 278 6029ft 175kts
07-Jun-23 10:01 34.283964 -119.332904 279 6036ft 175kts
07-Jun-23 10:02 34.289901 -119.393193 282 5576ft 187kts
07-Jun-23 10:03 34.299533 -119.453250 279 5018ft 174kts
07-Jun-23 10:04 34.307837 -119.511372 278 4294ft 176kts
07-Jun-23 10:05 34.325995 -119.565099 294 3524ft 170kts
07-Jun-23 10:06 34.344446 -119.615968 294 3001ft 155kts
07-Jun-23 10:07 34.354992 -119.663930 275 2662ft 149kts
07-Jun-23 10:08 34.364275 -119.709485 311 2279ft 134kts
07-Jun-23 10:09 34.390458 -119.747270 304 1461ft 150kts
07-Jun-23 10:10 34.413543 -119.784279 326 946ft 127kts
07-Jun-23 10:11 34.441250 -119.802930 305 758ft 102kts
07-Jun-23 10:12 34.444371 -119.835296 242 477ft 94kts
07-Jun-23 10:13 34.424956 -119.838577 161 14ft 24kts
07-Jun-23 10:14 34.424559 -119.837765 33 12ft 6kts
07-Jun-23 10:15 34.427063 -119.838453 347 11ft 0kts
07-Jun-23 10:16 34.428898 -119.841836 269 14ft 19kts
07-Jun-23 10:17 34.429255 -119.845347 248 14ft 0kts
07-Jun-23 10:18 34.429255 -119.845347 248 14ft 0kts
07-Jun-23 10:19 34.429255 -119.845347 248 14ft 0kts
07-Jun-23 10:20 34.429255 -119.845347 248 14ft 0kts
07-Jun-23 10:21 34.429255 -119.845347 248 14ft 0kts
07-Jun-23 10:22 34.429255 -119.845347 248 14ft 0kts
07-Jun-23 10:23 34.429255 -119.845347 248 14ft 0kts
07-Jun-23 10:24 34.429255 -119.845347 248 14ft 0kts
07-Jun-23 10:25 34.429255 -119.845347 248 14ft 0kts
07-Jun-23 10:26 34.429255 -119.845347 248 14ft 0kts
07-Jun-23 10:27 34.429255 -119.845347 248 14ft 0kts

Navigation Log

Ident Type
Flight plan parsing failed, navigation log unavailable